Time;durP1;ratioP1;P1;durP2;ratioP2;P2;SDS_P1;SDS_P2;PMS_P1;PMS_P2;Temp;Humidity;BMP_temperature;BMP_pressure;BME280_temperature;BME280_humidity;BME280_pressure;Samples;Min_cycle;Max_cycle;Signal;HPM_P1;HPM_P2
2022/11/13 00:01:46;;;;;;;7.00;3.42;;;;;;;15.78;45.87;102407.06;5002258;28;20030;-58
2022/11/13 00:04:11;;;;;;;7.25;3.30;;;;;;;15.78;45.54;102411.59;4985977;28;20037;-59
2022/11/13 00:06:37;;;;;;;10.93;3.88;;;;;;;15.73;44.72;102404.75;4985660;28;20029;-59
2022/11/13 00:09:02;;;;;;;9.98;3.97;;;;;;;15.71;44.91;102398.59;5003314;28;20019;-59
2022/11/13 00:11:28;;;;;;;6.40;3.80;;;;;;;15.69;45.89;102402.38;5001871;28;20030;-59
2022/11/13 00:13:53;;;;;;;7.43;3.85;;;;;;;15.69;44.66;102403.25;5001524;28;20041;-59
2022/11/13 00:16:19;;;;;;;7.22;3.50;;;;;;;15.65;44.41;102407.19;5002991;28;20058;-59
2022/11/13 00:18:45;;;;;;;5.53;3.45;;;;;;;15.60;44.68;102395.06;5001389;28;20046;-59
2022/11/13 00:21:17;;;;;;;5.18;3.35;;;;;;;15.56;46.13;102402.53;5001986;28;20023;-59
2022/11/13 00:23:42;;;;;;;4.15;3.42;;;;;;;15.53;45.43;102396.50;5001980;28;20053;-59
2022/11/13 00:26:09;;;;;;;4.90;3.28;;;;;;;15.49;45.67;102395.91;5001739;28;20054;-59
2022/11/13 00:28:34;;;;;;;4.40;2.88;;;;;;;15.46;46.11;102400.66;4985543;28;20034;-59
2022/11/13 00:31:01;;;;;;;7.88;3.88;;;;;;;15.40;45.77;102380.41;5001570;28;20058;-59
2022/11/13 00:33:27;;;;;;;4.72;3.28;;;;;;;15.39;45.42;102378.69;5001522;28;20026;-59
2022/11/13 00:35:52;;;;;;;6.03;3.63;;;;;;;15.36;45.37;102387.03;4985248;28;20030;-60
2022/11/13 00:38:18;;;;;;;6.53;3.50;;;;;;;15.32;45.67;102377.47;5002370;28;20499;-59
2022/11/13 00:40:43;;;;;;;5.90;3.20;;;;;;;15.29;45.23;102380.41;5001730;28;20086;-59
2022/11/13 00:43:08;;;;;;;4.22;3.05;;;;;;;15.29;45.46;102376.84;5001161;28;20041;-59
2022/11/13 00:45:34;;;;;;;4.45;3.70;;;;;;;15.24;45.09;102374.50;5001191;28;20117;-60
2022/11/13 00:47:59;;;;;;;4.90;3.00;;;;;;;15.23;44.78;102369.22;5000869;28;20027;-59
2022/11/13 00:50:25;;;;;;;7.45;3.10;;;;;;;15.20;44.75;102361.34;5001431;28;20100;-59
2022/11/13 00:52:50;;;;;;;5.32;2.78;;;;;;;15.14;45.81;102349.22;5001525;28;20038;-59
2022/11/13 00:55:15;;;;;;;8.15;3.80;;;;;;;15.14;45.32;102360.88;5000795;28;20038;-59
2022/11/13 00:57:41;;;;;;;4.65;3.30;;;;;;;15.11;45.63;102357.53;5000610;28;20038;-60
2022/11/13 01:00:07;;;;;;;7.90;3.72;;;;;;;15.11;46.03;102357.53;5001524;28;20497;-59
2022/11/13 01:02:32;;;;;;;8.90;4.70;;;;;;;15.09;44.86;102352.28;5000982;28;20038;-59
2022/11/13 01:04:57;;;;;;;5.45;3.75;;;;;;;15.06;45.38;102349.81;5000684;28;20042;-59
2022/11/13 01:07:23;;;;;;;5.43;3.35;;;;;;;15.08;46.46;102347.84;4985216;28;20034;-60
2022/11/13 01:09:49;;;;;;;6.07;3.60;;;;;;;15.09;46.02;102348.72;4984611;28;20022;-60
2022/11/13 01:12:15;;;;;;;7.45;4.13;;;;;;;15.08;44.98;102347.00;5002898;28;20059;-59
2022/11/13 01:14:40;;;;;;;6.65;3.95;;;;;;;15.03;44.47;102333.00;5001308;28;20034;-60
2022/11/13 01:17:05;;;;;;;6.03;3.63;;;;;;;15.03;45.80;102343.78;5000698;28;20412;-59
2022/11/13 01:19:31;;;;;;;7.80;4.18;;;;;;;15.01;45.82;102343.06;5002156;28;20065;-59
2022/11/13 01:21:56;;;;;;;12.15;4.35;;;;;;;14.96;45.39;102331.78;5002370;28;20190;-59
2022/11/13 01:24:21;;;;;;;11.50;3.50;;;;;;;14.94;46.04;102333.72;4984689;28;20030;-59
2022/11/13 01:26:47;;;;;;;6.50;3.70;;;;;;;14.95;46.10;102340.84;4984509;28;20030;-59
2022/11/13 01:29:12;;;;;;;10.20;3.65;;;;;;;14.90;45.72;102332.25;4984827;28;20038;-59
2022/11/13 01:31:38;;;;;;;8.40;3.92;;;;;;;14.88;45.57;102335.06;5001275;28;20039;-59
2022/11/13 01:34:03;;;;;;;7.40;3.78;;;;;;;14.88;45.18;102339.63;5000492;28;20030;-59
2022/11/13 01:36:28;;;;;;;6.68;3.50;;;;;;;14.85;45.48;102329.06;5002335;28;20031;-59
2022/11/13 01:38:55;;;;;;;7.35;3.63;;;;;;;14.83;46.25;102339.09;4984372;28;20038;-59
2022/11/13 01:41:24;;;;;;;4.57;3.20;;;;;;;14.78;46.01;102336.78;4983907;28;20038;-59
2022/11/13 01:43:51;;;;;;;8.35;4.13;;;;;;;14.75;45.29;102333.44;5000336;28;20045;-59
2022/11/13 01:46:32;;;;;;;6.25;3.15;;;;;;;14.73;45.93;102325.47;5000457;28;20030;-59
2022/11/13 01:49:02;;;;;;;5.95;3.45;;;;;;;14.72;46.04;102321.06;5004239;28;20038;-59
2022/11/13 01:51:33;;;;;;;7.00;4.03;;;;;;;14.68;45.05;102326.81;4987550;28;20092;-59
2022/11/13 01:54:02;;;;;;;9.48;3.92;;;;;;;14.69;46.02;102320.44;5003636;28;20356;-59
2022/11/13 01:56:28;;;;;;;9.27;3.50;;;;;;;14.69;46.08;102320.44;4987592;28;20117;-59
2022/11/13 01:59:01;;;;;;;5.53;3.65;;;;;;;14.71;45.76;102315.78;4987272;28;20026;-59
2022/11/13 02:01:27;;;;;;;5.22;3.65;;;;;;;14.72;45.79;102304.00;4988044;28;20038;-59
2022/11/13 02:03:52;;;;;;;5.18;3.47;;;;;;;14.74;45.79;102312.84;5004914;28;20060;-59
2022/11/13 02:06:19;;;;;;;7.38;3.50;;;;;;;14.71;44.61;102302.31;5004469;28;20018;-59
2022/11/13 02:08:44;;;;;;;9.85;4.35;;;;;;;14.71;44.60;102305.88;4988025;28;20035;-59
2022/11/13 02:11:10;;;;;;;6.25;3.95;;;;;;;14.69;45.93;102301.53;4987483;28;20040;-59
2022/11/13 02:13:37;;;;;;;5.75;3.40;;;;;;;14.66;44.67;102301.78;4986814;28;20117;-59
2022/11/13 02:16:03;;;;;;;6.85;3.88;;;;;;;14.64;44.91;102295.66;5003493;28;20045;-59
2022/11/13 02:18:29;;;;;;;8.32;4.25;;;;;;;14.62;45.11;102300.31;5005601;28;20480;-59
2022/11/13 02:21:15;;;;;;;9.32;3.63;;;;;;;14.54;45.38;102293.66;5003512;28;20042;-59
2022/11/13 02:24:00;;;;;;;5.78;3.17;;;;;;;14.53;44.80;102289.28;5003587;28;20041;-60
2022/11/13 02:26:26;;;;;;;11.88;4.65;;;;;;;14.49;45.63;102290.47;5002791;28;20035;-59
2022/11/13 02:28:53;;;;;;;6.65;3.88;;;;;;;14.49;45.88;102289.59;5003628;28;20054;-59
2022/11/13 02:31:18;;;;;;;7.75;3.33;;;;;;;14.49;45.60;102295.88;5003378;28;20471;-59
2022/11/13 02:33:43;;;;;;;14.95;4.65;;;;;;;14.48;45.18;102285.22;5003792;28;20093;-59
2022/11/13 02:36:10;;;;;;;5.70;3.33;;;;;;;14.46;46.38;102293.41;5004280;28;20101;-59
2022/11/13 02:38:37;;;;;;;8.60;4.57;;;;;;;14.48;45.30;102288.78;4987148;28;20054;-59
2022/11/13 02:41:02;;;;;;;6.43;4.10;;;;;;;14.45;45.34;102286.31;4986681;28;20026;-59
2022/11/13 02:43:28;;;;;;;5.47;3.50;;;;;;;14.47;46.09;102287.03;5003170;28;20053;-59
2022/11/13 02:45:53;;;;;;;9.35;4.53;;;;;;;14.47;46.22;102291.56;5003634;28;20082;-59
2022/11/13 02:48:19;;;;;;;7.07;3.80;;;;;;;14.45;45.92;102291.72;5003949;28;20033;-59
2022/11/13 02:50:44;;;;;;;7.72;4.30;;;;;;;14.44;46.42;102289.09;5003397;28;20039;-59
2022/11/13 02:53:10;;;;;;;10.50;4.05;;;;;;;14.43;44.98;102284.72;5003469;28;20030;-60
2022/11/13 02:55:35;;;;;;;8.85;4.35;;;;;;;14.42;45.02;102283.00;5002899;28;20161;-59
2022/11/13 02:58:01;;;;;;;6.07;4.05;;;;;;;14.42;45.11;102275.75;5001932;28;20531;-59
2022/11/13 03:00:26;;;;;;;7.55;4.03;;;;;;;14.41;44.99;102282.13;5003267;28;20158;-59
2022/11/13 03:02:51;;;;;;;6.95;4.55;;;;;;;14.39;45.13;102273.31;5002692;28;20046;-59
2022/11/13 03:05:17;;;;;;;5.20;3.75;;;;;;;14.39;45.80;102270.59;5003577;28;20041;-59
2022/11/13 03:07:42;;;;;;;6.43;3.97;;;;;;;14.37;45.97;102267.19;5003782;28;20460;-59
2022/11/13 03:10:09;;;;;;;6.30;3.72;;;;;;;14.37;45.06;102263.63;4986426;28;20042;-59
2022/11/13 03:12:35;;;;;;;6.93;4.60;;;;;;;14.35;46.16;102265.59;5001536;28;20077;-59
2022/11/13 03:15:00;;;;;;;7.50;4.10;;;;;;;14.34;45.55;102264.72;5002342;28;20045;-59
2022/11/13 03:17:25;;;;;;;6.90;3.85;;;;;;;14.32;45.12;102255.88;4986597;28;20408;-60
2022/11/13 03:19:51;;;;;;;6.13;3.60;;;;;;;14.33;45.55;102260.28;5002242;28;20030;-60
2022/11/13 03:22:16;;;;;;;5.50;3.58;;;;;;;14.32;46.51;102255.03;5001921;28;20041;-59
2022/11/13 03:24:41;;;;;;;6.55;4.03;;;;;;;14.30;46.44;102252.41;5002300;28;20035;-59
2022/11/13 03:27:07;;;;;;;9.73;4.53;;;;;;;14.28;45.28;102243.59;5003880;28;20046;-59
2022/11/13 03:29:32;;;;;;;7.35;3.83;;;;;;;14.26;46.25;102242.84;5003039;28;20170;-59
2022/11/13 03:31:57;;;;;;;7.70;3.97;;;;;;;14.25;45.78;102243.81;5001755;28;20038;-59
2022/11/13 03:34:23;;;;;;;7.63;5.43;;;;;;;14.21;45.08;102250.41;5001606;28;20030;-59
2022/11/13 03:36:48;;;;;;;10.02;4.40;;;;;;;14.21;45.12;102247.72;5003225;28;20113;-59
2022/11/13 03:39:13;;;;;;;6.93;4.55;;;;;;;14.20;45.35;102256.78;5003062;28;20037;-59
2022/11/13 03:41:39;;;;;;;10.38;4.28;;;;;;;14.20;44.98;102251.41;5003199;28;20034;-59
2022/11/13 03:44:04;;;;;;;6.00;3.45;;;;;;;14.20;45.03;102256.78;5002784;28;20045;-59
2022/11/13 03:46:29;;;;;;;5.45;3.65;;;;;;;14.20;46.15;102255.94;5000888;28;20090;-59
2022/11/13 03:48:55;;;;;;;6.53;3.35;;;;;;;14.18;46.07;102250.63;5001766;28;20030;-59
2022/11/13 03:51:20;;;;;;;6.43;4.05;;;;;;;14.19;45.10;102251.50;4986042;28;20034;-59
2022/11/13 03:53:46;;;;;;;5.32;4.10;;;;;;;14.14;45.21;102249.19;5001197;28;20052;-59
2022/11/13 03:56:11;;;;;;;7.25;4.25;;;;;;;14.15;44.76;102258.13;4985403;28;20053;-60
2022/11/13 03:58:36;;;;;;;7.95;3.95;;;;;;;14.10;44.80;102244.97;5001688;28;20440;-59
2022/11/13 04:01:02;;;;;;;5.40;4.20;;;;;;;14.09;46.56;102242.41;4984494;28;20038;-59
2022/11/13 04:03:27;;;;;;;7.85;3.88;;;;;;;14.09;45.78;102245.13;5001647;28;20058;-59
2022/11/13 04:05:53;;;;;;;10.98;3.80;;;;;;;14.07;45.85;102242.53;4968823;28;20065;-59
2022/11/13 04:08:18;;;;;;;7.15;4.05;;;;;;;14.09;45.26;102247.81;4985198;28;20034;-59
2022/11/13 04:10:44;;;;;;;7.80;3.60;;;;;;;14.07;45.76;102245.22;5001223;28;20132;-59
2022/11/13 04:13:10;;;;;;;7.57;3.17;;;;;;;14.04;45.50;102248.16;5002220;28;20061;-59
2022/11/13 04:15:35;;;;;;;6.88;3.15;;;;;;;14.00;44.81;102239.44;5001158;28;20480;-59
2022/11/13 04:18:01;;;;;;;8.48;3.80;;;;;;;13.97;45.64;102234.28;5002463;28;20026;-59
2022/11/13 04:20:27;;;;;;;7.35;3.78;;;;;;;13.89;45.39;102231.31;5000918;28;20054;-59
2022/11/13 04:22:53;;;;;;;5.60;3.47;;;;;;;13.87;44.79;102233.25;5000956;28;20038;-59
2022/11/13 04:25:19;;;;;;;5.40;3.65;;;;;;;13.82;45.14;102221.97;5001125;28;20539;-59
2022/11/13 04:27:44;;;;;;;5.65;3.35;;;;;;;13.77;46.23;102210.69;5001447;28;20073;-59
2022/11/13 04:30:10;;;;;;;6.47;3.55;;;;;;;13.76;46.07;102224.28;5001642;28;20096;-59
2022/11/13 04:32:35;;;;;;;5.88;3.30;;;;;;;13.70;45.35;102219.38;5001718;28;20093;-59
2022/11/13 04:35:00;;;;;;;5.25;3.30;;;;;;;13.66;45.29;102213.34;5001946;28;20451;-59
2022/11/13 04:37:26;;;;;;;5.78;3.47;;;;;;;13.61;45.96;102206.59;5000380;28;20042;-59
2022/11/13 04:39:51;;;;;;;6.60;3.50;;;;;;;13.57;45.35;102207.81;4984073;28;20042;-59
2022/11/13 04:45:01;;;;;;;7.78;3.55;;;;;;;13.51;44.99;102197.50;5001034;28;20097;-59
2022/11/13 04:47:26;;;;;;;5.60;3.45;;;;;;;13.50;45.23;102201.13;5000441;28;20027;-59
2022/11/13 04:49:51;;;;;;;5.43;3.55;;;;;;;13.46;45.90;102205.03;5002093;28;20034;-59
2022/11/13 04:52:17;;;;;;;6.65;3.38;;;;;;;13.46;44.86;102196.94;4984096;28;20046;-59
2022/11/13 04:54:42;;;;;;;7.10;3.22;;;;;;;13.49;45.31;102194.03;4984157;28;20026;-59
2022/11/13 04:57:07;;;;;;;6.05;3.22;;;;;;;13.48;45.01;102190.50;5001183;28;20096;-59
2022/11/13 04:59:33;;;;;;;5.18;3.63;;;;;;;13.44;45.53;102180.91;5001813;28;20039;-59
2022/11/13 05:01:58;;;;;;;5.10;3.92;;;;;;;13.43;45.10;102178.38;4983970;28;20516;-59
2022/11/13 05:04:23;;;;;;;5.55;3.38;;;;;;;13.43;45.59;102181.06;5000316;28;20043;-59
2022/11/13 05:06:49;;;;;;;8.32;3.08;;;;;;;13.36;44.73;102173.44;5000293;28;20464;-59
2022/11/13 05:09:14;;;;;;;6.70;3.55;;;;;;;13.39;45.25;102172.34;5001185;28;20090;-59
2022/11/13 05:11:39;;;;;;;6.22;3.35;;;;;;;13.37;44.82;102177.81;5000299;28;20049;-59
2022/11/13 05:14:05;;;;;;;6.38;3.22;;;;;;;13.43;46.06;102194.50;5000321;28;20086;-59
2022/11/13 05:16:31;;;;;;;8.23;3.45;;;;;;;13.41;45.82;102183.84;4996294;28;20034;-59
2022/11/13 05:18:57;;;;;;;5.55;3.53;;;;;;;13.43;45.07;102182.75;4980809;28;20030;-59
2022/11/13 05:21:22;;;;;;;8.38;3.90;;;;;;;13.43;44.91;102180.06;4983478;28;20027;-59
2022/11/13 05:23:48;;;;;;;6.30;3.63;;;;;;;13.43;45.02;102178.38;4985936;28;20027;-59
2022/11/13 05:26:13;;;;;;;6.00;3.03;;;;;;;13.39;45.33;102173.22;4984908;28;20038;-59
2022/11/13 05:28:39;;;;;;;7.90;3.65;;;;;;;13.37;45.42;102167.06;4984960;28;20488;-59
2022/11/13 05:31:15;;;;;;;5.63;3.13;;;;;;;13.33;45.30;102173.66;4984834;28;20043;-59
2022/11/13 05:33:41;;;;;;;6.22;3.53;;;;;;;13.31;44.69;102163.97;4984112;28;20030;-59
2022/11/13 05:36:11;;;;;;;4.93;3.17;;;;;;;13.27;45.79;102168.72;4969370;28;20039;-59
2022/11/13 05:38:36;;;;;;;8.52;2.63;;;;;;;13.21;45.09;102158.41;4985783;28;20042;-59
2022/11/13 05:41:09;;;;;;;8.98;3.63;;;;;;;13.22;45.30;102168.22;4985148;28;20031;-59
2022/11/13 05:43:35;;;;;;;5.68;2.78;;;;;;;13.19;45.47;102168.44;4984246;28;20031;-59
2022/11/13 05:46:05;;;;;;;5.40;3.63;;;;;;;13.18;44.72;102168.53;4984191;28;20054;-59
2022/11/13 05:48:31;;;;;;;4.78;3.13;;;;;;;13.15;44.93;102168.78;4984390;28;20035;-60
2022/11/13 05:51:05;;;;;;;4.22;3.05;;;;;;;13.11;45.17;102159.22;4985898;28;20050;-59
2022/11/13 05:53:32;;;;;;;4.00;2.83;;;;;;;13.05;45.75;102155.09;4983593;28;20035;-59
2022/11/13 05:56:09;;;;;;;7.35;3.90;;;;;;;13.02;45.79;102149.09;4952433;28;20068;-59
2022/11/13 05:58:35;;;;;;;4.88;3.20;;;;;;;12.97;45.84;102140.50;4967813;28;20097;-59
2022/11/13 06:01:09;;;;;;;4.32;2.65;;;;;;;12.93;45.86;102139.84;4984432;28;20480;-59
2022/11/13 06:03:35;;;;;;;5.90;3.22;;;;;;;12.90;44.88;102137.38;4984124;28;20026;-59
2022/11/13 06:06:00;;;;;;;4.65;2.80;;;;;;;12.87;45.98;102128.72;4985418;28;20033;-59
2022/11/13 06:08:26;;;;;;;5.07;2.50;;;;;;;12.85;46.10;102123.41;4984244;28;20043;-59
2022/11/13 06:10:51;;;;;;;3.80;2.78;;;;;;;12.81;45.48;102124.63;4951748;28;20469;-59
2022/11/13 06:13:16;;;;;;;4.97;3.53;;;;;;;12.79;45.70;102121.19;4968252;28;20109;-59
2022/11/13 06:15:42;;;;;;;5.35;3.67;;;;;;;12.79;45.40;102118.47;4983589;28;20042;-59
2022/11/13 06:18:07;;;;;;;5.35;2.90;;;;;;;12.78;45.68;102120.34;4985507;28;20052;-59
2022/11/13 06:20:36;;;;;;;5.55;3.20;;;;;;;12.76;44.90;102119.56;4968452;28;20441;-59
2022/11/13 06:23:01;;;;;;;3.28;2.90;;;;;;;12.76;45.83;102121.41;4985646;28;20061;-59
2022/11/13 06:25:27;;;;;;;4.85;2.83;;;;;;;12.78;45.87;102117.66;4967138;28;20134;-59
2022/11/13 06:27:53;;;;;;;5.40;3.25;;;;;;;12.79;44.74;102118.47;4984947;28;20042;-59
2022/11/13 06:30:18;;;;;;;5.80;2.88;;;;;;;12.78;45.38;102116.78;4984550;28;20051;-59
2022/11/13 06:32:44;;;;;;;4.82;3.08;;;;;;;12.74;45.50;102115.28;4967289;28;20034;-59
2022/11/13 06:35:09;;;;;;;5.18;2.95;;;;;;;12.69;45.61;102112.94;4967266;28;20133;-59
2022/11/13 06:37:34;;;;;;;4.80;2.95;;;;;;;12.67;44.99;102119.41;4951769;28;20042;-59
2022/11/13 06:40:00;;;;;;;4.90;3.20;;;;;;;12.61;44.78;102112.63;4984952;28;20397;-59
2022/11/13 06:42:25;;;;;;;4.28;2.65;;;;;;;12.58;45.74;102104.78;4968668;28;20039;-59
2022/11/13 06:44:51;;;;;;;5.18;3.15;;;;;;;12.56;45.38;102106.72;4984851;28;20046;-59
2022/11/13 06:47:16;;;;;;;3.85;2.45;;;;;;;12.55;44.75;102109.53;4967865;28;20612;-59
2022/11/13 06:49:42;;;;;;;2.95;2.65;;;;;;;12.49;45.15;102105.44;4967556;28;20045;-59
2022/11/13 06:52:07;;;;;;;5.90;2.80;;;;;;;12.50;45.20;102109.00;4984425;28;20031;-59
2022/11/13 06:54:32;;;;;;;3.75;2.33;;;;;;;12.49;44.99;102109.97;4983657;28;20041;-59
2022/11/13 06:56:58;;;;;;;3.85;2.50;;;;;;;12.47;44.77;102103.84;4967890;28;20066;-59
2022/11/13 06:59:23;;;;;;;2.65;1.95;;;;;;;12.48;45.78;102108.25;4982633;28;20031;-59
2022/11/13 07:01:51;;;;;;;3.40;2.30;;;;;;;12.47;46.00;102107.41;4983338;28;20042;-59
2022/11/13 07:04:17;;;;;;;4.65;2.55;;;;;;;12.48;45.18;102109.09;4967231;28;20034;-59
2022/11/13 07:06:42;;;;;;;6.57;2.88;;;;;;;12.48;45.24;102111.78;4984343;28;20491;-59
2022/11/13 07:09:07;;;;;;;3.22;2.38;;;;;;;12.48;45.07;102114.47;4983440;28;20392;-59
2022/11/13 07:11:33;;;;;;;6.65;2.83;;;;;;;12.49;45.17;102115.31;4983066;28;20039;-59
2022/11/13 07:13:58;;;;;;;5.38;3.03;;;;;;;12.50;45.46;102117.06;4966345;28;20123;-59
2022/11/13 07:16:24;;;;;;;6.82;3.42;;;;;;;12.51;45.42;102113.38;4983226;28;20473;-59
2022/11/13 07:18:52;;;;;;;5.03;3.13;;;;;;;12.54;45.24;102116.72;4983630;28;25414;-59
2022/11/13 07:21:18;;;;;;;8.10;3.55;;;;;;;12.60;44.71;102123.47;4983122;28;20061;-59
2022/11/13 07:23:46;;;;;;;5.65;3.30;;;;;;;12.66;45.24;102123.03;4982249;28;20039;-59
2022/11/13 07:26:12;;;;;;;5.20;2.83;;;;;;;12.70;45.03;102114.63;4983723;28;20035;-60
2022/11/13 07:28:37;;;;;;;10.20;3.83;;;;;;;12.79;45.78;102123.88;4966189;28;20041;-59
2022/11/13 07:31:03;;;;;;;7.55;2.85;;;;;;;12.86;45.53;102117.09;4982584;28;20064;-59
2022/11/13 07:33:28;;;;;;;4.93;3.30;;;;;;;12.94;45.90;102120.06;4967214;28;20027;-59
2022/11/13 07:35:55;;;;;;;8.00;4.10;;;;;;;12.98;44.95;102113.47;4983479;28;20121;-59
2022/11/13 07:38:21;;;;;;;5.47;3.55;;;;;;;13.04;44.37;102113.03;4982860;28;20038;-59
2022/11/13 07:40:46;;;;;;;3.90;2.70;;;;;;;13.06;45.50;102112.94;4966869;28;20523;-59
2022/11/13 07:43:12;;;;;;;5.38;3.30;;;;;;;13.10;45.61;102106.38;4966770;28;20400;-60
2022/11/13 07:45:37;;;;;;;4.93;3.15;;;;;;;13.13;44.77;102101.63;4983502;28;20049;-59
2022/11/13 07:48:03;;;;;;;9.43;3.30;;;;;;;13.18;45.70;102099.44;4983111;28;20532;-59
2022/11/13 07:50:32;;;;;;;5.13;2.85;;;;;;;13.23;45.44;102104.50;4982723;28;20034;-59
2022/11/13 07:53:00;;;;;;;7.32;3.40;;;;;;;13.25;44.73;102098.03;4982129;28;20544;-59
2022/11/13 07:55:26;;;;;;;5.53;2.80;;;;;;;13.31;45.24;102094.00;4982215;28;20045;-59
2022/11/13 07:57:55;;;;;;;4.25;3.15;;;;;;;13.35;44.46;102101.72;4982585;28;20035;-59
2022/11/13 08:00:21;;;;;;;6.70;3.20;;;;;;;13.39;45.75;102089.78;4982115;28;20369;-59
2022/11/13 08:02:46;;;;;;;11.43;3.50;;;;;;;13.45;45.74;102093.81;4982612;28;20058;-59
2022/11/13 08:05:13;;;;;;;5.22;3.28;;;;;;;13.51;44.61;102090.66;4982732;28;20039;-60
2022/11/13 08:07:38;;;;;;;5.03;3.10;;;;;;;13.58;44.78;102082.97;4983293;28;20070;-59
2022/11/13 08:10:04;;;;;;;4.32;3.40;;;;;;;13.64;45.41;102077.13;4965807;28;20054;-60
2022/11/13 08:12:29;;;;;;;5.25;3.38;;;;;;;13.73;46.11;102079.09;4982669;28;20404;-59
2022/11/13 08:14:55;;;;;;;5.75;3.30;;;;;;;13.82;45.60;102072.97;4982315;28;20050;-59
2022/11/13 08:17:20;;;;;;;5.55;3.58;;;;;;;13.92;44.98;102079.38;4982439;28;20105;-59
2022/11/13 08:19:45;;;;;;;5.57;3.33;;;;;;;14.00;45.50;102071.56;4965695;28;20045;-59
2022/11/13 08:22:11;;;;;;;6.10;3.78;;;;;;;14.13;45.49;102072.28;4982347;28;20027;-59
2022/11/13 08:24:36;;;;;;;7.20;3.88;;;;;;;14.29;45.22;102070.09;4966703;28;20041;-59
2022/11/13 08:27:01;;;;;;;6.50;3.55;;;;;;;14.48;45.82;102066.81;4968899;28;20027;-59
2022/11/13 08:29:27;;;;;;;6.38;3.63;;;;;;;14.69;45.12;102067.75;4979138;28;20174;-59
2022/11/13 08:31:52;;;;;;;7.13;4.35;;;;;;;14.92;44.47;102065.88;4965072;28;20492;-59
2022/11/13 08:34:18;;;;;;;7.93;4.03;;;;;;;15.13;45.86;102064.94;4964943;28;20049;-59
2022/11/13 08:36:43;;;;;;;8.50;4.25;;;;;;;15.36;44.34;102063.00;4964547;28;20035;-59
2022/11/13 08:39:08;;;;;;;8.52;3.75;;;;;;;15.57;44.08;102052.28;4981032;28;20110;-59
2022/11/13 08:41:34;;;;;;;7.40;3.78;;;;;;;15.83;44.20;102055.44;4964292;28;20043;-60
2022/11/13 08:43:59;;;;;;;6.78;4.22;;;;;;;16.02;44.36;102050.13;4982053;28;20045;-58
2022/11/13 08:46:24;;;;;;;6.30;3.75;;;;;;;16.28;43.95;102057.66;4967949;28;20035;-59
2022/11/13 08:48:50;;;;;;;6.30;4.03;;;;;;;16.54;43.48;102049.09;4987521;28;20039;-59
2022/11/13 08:51:15;;;;;;;5.82;2.92;;;;;;;16.78;44.88;102046.84;4983848;28;20126;-60
2022/11/13 08:53:41;;;;;;;6.35;3.88;;;;;;;16.98;44.58;102040.47;4984186;28;20493;-60
2022/11/13 08:56:06;;;;;;;4.03;3.35;;;;;;;17.20;44.21;102052.88;4983229;28;20043;-60
2022/11/13 08:58:31;;;;;;;7.10;4.00;;;;;;;17.34;43.78;102034.38;4966053;28;20795;-59
2022/11/13 09:01:01;;;;;;;5.07;3.80;;;;;;;17.54;44.52;102046.06;4983915;28;20042;-59
2022/11/13 09:03:26;;;;;;;4.82;3.17;;;;;;;17.78;43.59;102038.31;4966982;28;20037;-59
2022/11/13 09:05:51;;;;;;;6.85;3.03;;;;;;;18.04;44.08;102033.97;4982370;28;20039;-59
2022/11/13 09:08:17;;;;;;;3.92;3.20;;;;;;;18.32;42.99;102040.28;4983086;28;20035;-59
2022/11/13 09:10:42;;;;;;;4.72;2.97;;;;;;;18.64;43.08;102020.88;4967186;28;20038;-59
2022/11/13 09:13:10;;;;;;;3.58;2.92;;;;;;;19.06;42.56;102026.59;4966258;28;20027;-60
2022/11/13 09:15:37;;;;;;;4.75;3.03;;;;;;;19.44;42.48;102025.41;4983051;28;20051;-59
2022/11/13 09:18:03;;;;;;;5.80;2.83;;;;;;;19.85;41.51;102013.81;4966499;28;20113;-59
2022/11/13 09:20:29;;;;;;;4.50;2.60;;;;;;;20.38;40.85;102020.97;4982495;28;20035;-60
2022/11/13 09:22:56;;;;;;;4.70;2.80;;;;;;;20.88;41.67;102010.91;4983598;28;20038;-59
2022/11/13 09:25:22;;;;;;;6.57;2.90;;;;;;;21.46;40.71;102014.41;4984053;28;20067;-59
2022/11/13 09:27:58;;;;;;;4.40;2.85;;;;;;;22.04;40.39;102008.69;4983679;28;20023;-60
2022/11/13 09:30:24;;;;;;;6.72;2.90;;;;;;;22.50;39.36;102006.97;4984467;28;20050;-60
2022/11/13 09:32:56;;;;;;;4.75;3.00;;;;;;;23.00;39.33;102001.06;4985174;28;20381;-60
2022/11/13 09:35:35;;;;;;;5.38;2.15;;;;;;;23.46;38.94;101999.19;4983995;28;20042;-59
2022/11/13 09:38:03;;;;;;;3.38;2.33;;;;;;;23.91;38.57;101997.38;4983941;28;20031;-59
2022/11/13 09:40:51;;;;;;;3.88;2.22;;;;;;;24.26;37.95;101989.28;4984315;28;20046;-61
2022/11/13 09:43:26;;;;;;;3.05;2.15;;;;;;;24.71;37.64;101993.66;4983358;28;20042;-60
2022/11/13 09:45:55;;;;;;;2.85;2.30;;;;;;;25.09;37.03;101998.94;4983894;28;20027;-59
2022/11/13 09:48:30;;;;;;;4.47;2.83;;;;;;;25.40;37.11;101991.22;4984891;28;20019;-60
2022/11/13 09:50:56;;;;;;;3.28;2.70;;;;;;;25.67;36.85;101995.91;4984965;28;20047;-60
2022/11/13 09:53:21;;;;;;;3.50;2.20;;;;;;;26.01;36.15;101989.59;4983360;28;20038;-60
2022/11/13 09:56:15;;;;;;;2.63;2.25;;;;;;;26.28;35.66;101987.88;4985534;28;20035;-62
2022/11/13 09:58:46;;;;;;;3.13;2.05;;;;;;;26.57;36.00;101987.59;4986059;28;20065;-60
2022/11/13 10:01:21;;;;;;;3.30;2.03;;;;;;;26.78;35.49;101979.22;4968522;28;20381;-60
2022/11/13 10:03:51;;;;;;;5.18;2.45;;;;;;;26.99;35.21;101984.56;4984574;28;20027;-61
2022/11/13 10:06:31;;;;;;;2.65;2.10;;;;;;;27.19;35.05;101977.16;4985005;28;20022;-61
2022/11/13 10:09:06;;;;;;;3.72;2.40;;;;;;;27.34;35.25;101976.13;4986826;28;20070;-60
2022/11/13 10:11:34;;;;;;;4.57;2.47;;;;;;;27.50;34.69;101975.75;4972096;28;20035;-60
2022/11/13 10:14:20;;;;;;;5.13;2.10;;;;;;;27.67;33.98;101974.22;4989546;28;20058;-60
2022/11/13 10:16:59;;;;;;;4.35;2.30;;;;;;;27.84;34.24;101974.63;4988450;28;20027;-60
2022/11/13 10:19:31;;;;;;;2.85;2.25;;;;;;;28.01;34.47;101981.38;4988350;28;20031;-60
2022/11/13 10:22:10;;;;;;;2.80;2.40;;;;;;;28.17;34.40;101973.53;4987729;28;20034;-60
2022/11/13 10:24:39;;;;;;;3.50;2.10;;;;;;;28.27;33.77;101973.06;4972086;28;20730;-62
2022/11/13 10:27:12;;;;;;;3.22;2.33;;;;;;;28.34;33.62;101970.31;4989042;28;20022;-62
2022/11/13 10:29:38;;;;;;;2.83;1.90;;;;;;;28.41;34.20;101973.88;4989068;28;20065;-62
2022/11/13 10:32:17;;;;;;;3.53;1.98;;;;;;;28.48;33.66;101960.88;4987754;28;20115;-62
2022/11/13 10:34:47;;;;;;;3.72;2.50;;;;;;;28.53;32.89;101952.81;4971801;28;20054;-61
2022/11/13 10:37:50;;;;;;;2.88;2.17;;;;;;;28.68;32.89;101956.16;4988601;28;20035;-61
2022/11/13 10:40:26;;;;;;;5.93;2.95;;;;;;;28.75;33.17;101960.59;4988927;28;20031;-61
2022/11/13 10:42:52;;;;;;;3.45;2.20;;;;;;;28.77;32.67;101961.19;4973234;28;20035;-60
2022/11/13 10:45:20;;;;;;;2.92;2.20;;;;;;;28.85;32.60;101957.31;4989474;28;20038;-61
2022/11/13 10:47:50;;;;;;;5.13;2.42;;;;;;;28.86;32.70;101959.03;4971777;28;20031;-61
2022/11/13 10:50:27;;;;;;;3.63;2.80;;;;;;;28.93;31.87;101951.53;4988125;28;20060;-61
2022/11/13 10:52:53;;;;;;;3.55;2.70;;;;;;;28.99;32.63;101945.13;4989015;28;20031;-60
2022/11/13 10:55:38;;;;;;;5.30;3.53;;;;;;;29.09;31.97;101941.88;4989307;28;20039;-61
2022/11/13 10:58:12;;;;;;;3.97;2.83;;;;;;;29.20;31.75;101946.69;4988136;28;20053;-61
2022/11/13 11:00:40;;;;;;;2.55;2.25;;;;;;;29.26;32.04;101943.88;4985524;28;20027;-62
2022/11/13 11:03:22;;;;;;;3.45;2.10;;;;;;;29.33;31.41;101944.69;4987124;28;20101;-62
2022/11/13 11:05:52;;;;;;;1.88;1.58;;;;;;;29.30;30.91;101928.56;4963029;28;20070;-61
2022/11/13 11:08:21;;;;;;;2.70;2.13;;;;;;;29.33;31.78;101932.78;4979360;28;20062;-61
2022/11/13 11:14:23;;;;;;;2.60;1.70;;;;;;;29.33;30.84;101922.59;4978225;28;20046;-63
2022/11/13 11:16:51;;;;;;;2.83;1.70;;;;;;;29.32;31.42;101922.81;4975767;28;20114;-62
2022/11/13 11:19:17;;;;;;;3.45;1.80;;;;;;;29.30;31.03;101917.53;4976043;28;20058;-61
2022/11/13 11:21:43;;;;;;;2.22;1.83;;;;;;;29.32;30.69;101915.38;4976837;28;20034;-61
2022/11/13 11:24:14;;;;;;;4.53;1.60;;;;;;;29.28;30.59;101914.16;4976519;28;20084;-61
2022/11/13 11:26:39;;;;;;;3.03;1.52;;;;;;;29.24;30.60;101912.06;4976408;28;20125;-62
2022/11/13 11:29:15;;;;;;;1.83;1.73;;;;;;;29.21;30.88;101913.31;4976208;28;20058;-62
2022/11/13 11:31:54;;;;;;;3.83;1.60;;;;;;;29.21;30.46;101906.94;4975808;28;20034;-60